Time;durP1;ratioP1;P1;durP2;ratioP2;P2;SDS_P1;SDS_P2;PMS_P1;PMS_P2;Temp;Humidity;BMP_temperature;BMP_pressure;BME280_temperature;BME280_humidity;BME280_pressure;Samples;Min_cycle;Max_cycle;Signal;HPM_P1;HPM_P2
2023/04/13 00:00:15;;;;;;;;;;;6.80;99.90;;;;;;5096351;28;19912;-74
2023/04/13 00:02:41;;;;;;;;;;;6.80;99.90;;;;;;5096476;28;19908;-73
2023/04/13 00:05:09;;;;;;;;;;;6.70;99.90;;;;;;5096373;28;19908;-74
2023/04/13 00:07:38;;;;;;;;;;;6.70;99.90;;;;;;5078171;28;19967;-72
2023/04/13 00:10:05;;;;;;;;;;;6.80;99.90;;;;;;5096143;28;19938;-73
2023/04/13 00:12:32;;;;;;;;;;;6.80;99.90;;;;;;5096144;28;20410;-75
2023/04/13 00:14:57;;;;;;;;;;;6.80;99.90;;;;;;5096175;28;19931;-73
2023/04/13 00:17:25;;;;;;;;;;;6.80;99.90;;;;;;5096104;28;20368;-74
2023/04/13 00:19:52;;;;;;;;;;;6.70;99.90;;;;;;5096066;28;19916;-72
2023/04/13 00:22:21;;;;;;;;;;;6.70;99.90;;;;;;5095975;28;19908;-74
2023/04/13 00:24:46;;;;;;;;;;;6.70;99.90;;;;;;5096228;28;19915;-73
2023/04/13 00:27:13;;;;;;;;;;;6.70;99.90;;;;;;5095901;28;20364;-73
2023/04/13 00:29:38;;;;;;;;;;;6.70;99.90;;;;;;5095781;28;19912;-73
2023/04/13 00:32:04;;;;;;;;;;;6.70;99.90;;;;;;5095805;28;19919;-73
2023/04/13 00:34:29;;;;;;;;;;;6.70;99.90;;;;;;5095987;28;19950;-73
2023/04/13 00:36:55;;;;;;;;;;;6.70;99.90;;;;;;5095699;28;20003;-73
2023/04/13 00:39:22;;;;;;;;;;;6.60;99.90;;;;;;5095629;28;19912;-74
2023/04/13 00:41:50;;;;;;;;;;;6.60;99.90;;;;;;5095227;28;19920;-73
2023/04/13 00:44:18;;;;;;;;;;;6.60;99.90;;;;;;5095871;28;20392;-74
2023/04/13 00:46:49;;;;;;;;;;;6.60;99.90;;;;;;5077422;28;20003;-74
2023/04/13 00:49:14;;;;;;;;;;;6.60;99.90;;;;;;5094484;28;19939;-73
2023/04/13 00:51:41;;;;;;;;;;;6.60;99.90;;;;;;5095747;28;20359;-72
2023/04/13 00:54:06;;;;;;;;;;;6.60;99.90;;;;;;5095388;28;19908;-73
2023/04/13 00:56:33;;;;;;;;;;;6.60;99.90;;;;;;5095612;28;19908;-74
2023/04/13 00:58:58;;;;;;;;;;;6.50;99.90;;;;;;5095228;28;19931;-73
2023/04/13 01:01:24;;;;;;;;;;;6.50;99.90;;;;;;5077058;28;20367;-74
2023/04/13 01:03:52;;;;;;;;;;;6.50;99.90;;;;;;5077063;28;20264;-73
2023/04/13 01:06:44;;;;;;;;;;;6.40;99.90;;;;;;5095165;28;19931;-72
2023/04/13 01:09:23;;;;;;;;;;;6.30;99.90;;;;;;5071140;28;19912;-73
2023/04/13 01:11:48;;;;;;;;;;;6.30;99.90;;;;;;5095309;28;19961;-73
2023/04/13 01:14:30;;;;;;;;;;;6.30;99.90;;;;;;5076886;28;20346;-73
2023/04/13 01:17:02;;;;;;;;;;;6.20;99.90;;;;;;5095090;28;19908;-73
2023/04/13 01:19:50;;;;;;;;;;;6.30;99.90;;;;;;5094899;28;19953;-74
2023/04/13 01:22:17;;;;;;;;;;;6.20;99.90;;;;;;5076677;28;20344;-73
2023/04/13 01:25:02;;;;;;;;;;;6.20;99.90;;;;;;5076603;28;19939;-72
2023/04/13 01:27:41;;;;;;;;;;;6.20;99.90;;;;;;5094711;28;19915;-73
2023/04/13 01:30:09;;;;;;;;;;;6.20;99.90;;;;;;5094823;28;20283;-74
2023/04/13 01:32:39;;;;;;;;;;;6.20;99.90;;;;;;5094621;28;19919;-74
2023/04/13 01:35:05;;;;;;;;;;;6.10;99.90;;;;;;5076685;28;19912;-73
2023/04/13 01:37:32;;;;;;;;;;;6.10;99.90;;;;;;5094732;28;20006;-72
2023/04/13 01:39:58;;;;;;;;;;;6.00;99.90;;;;;;5094317;28;20367;-73
2023/04/13 01:42:24;;;;;;;;;;;6.00;99.90;;;;;;5094743;28;19936;-73
2023/04/13 01:44:50;;;;;;;;;;;6.00;99.90;;;;;;5094424;28;19915;-73
2023/04/13 01:47:17;;;;;;;;;;;6.00;99.90;;;;;;5094376;28;20407;-73
2023/04/13 01:50:03;;;;;;;;;;;6.00;99.90;;;;;;5094267;28;20321;-73
2023/04/13 01:52:32;;;;;;;;;;;6.00;99.90;;;;;;5093547;28;19955;-73
2023/04/13 01:54:59;;;;;;;;;;;6.00;99.90;;;;;;5094230;28;19908;-73
2023/04/13 01:57:25;;;;;;;;;;;6.00;99.90;;;;;;5075920;28;19919;-73
2023/04/13 01:59:50;;;;;;;;;;;6.00;99.90;;;;;;5094379;28;19908;-73
2023/04/13 02:02:16;;;;;;;;;;;6.00;99.90;;;;;;5094364;28;19908;-75
2023/04/13 02:04:41;;;;;;;;;;;6.10;99.90;;;;;;5094371;28;20375;-73
2023/04/13 02:07:07;;;;;;;;;;;6.10;99.90;;;;;;5094113;28;19957;-72
2023/04/13 02:09:34;;;;;;;;;;;6.10;99.90;;;;;;5093968;28;19912;-73
2023/04/13 02:11:59;;;;;;;;;;;6.10;99.90;;;;;;5094186;28;19909;-73
2023/04/13 02:14:26;;;;;;;;;;;6.00;99.90;;;;;;5094000;28;19908;-73
2023/04/13 02:16:51;;;;;;;;;;;6.10;99.90;;;;;;5075815;28;20384;-73
2023/04/13 02:19:17;;;;;;;;;;;6.00;99.90;;;;;;5094015;28;19915;-73
2023/04/13 02:21:42;;;;;;;;;;;5.90;99.90;;;;;;5093843;28;19915;-73
2023/04/13 02:24:08;;;;;;;;;;;6.00;99.90;;;;;;5094210;28;19930;-73
2023/04/13 02:26:36;;;;;;;;;;;5.90;99.90;;;;;;5093836;28;19908;-73
2023/04/13 02:29:01;;;;;;;;;;;5.90;99.90;;;;;;5093793;28;19908;-75
2023/04/13 02:31:27;;;;;;;;;;;5.90;99.90;;;;;;5093829;28;19970;-73
2023/04/13 02:33:52;;;;;;;;;;;5.90;99.90;;;;;;5093731;28;19923;-74
2023/04/13 02:36:19;;;;;;;;;;;5.90;99.90;;;;;;5094070;28;19934;-73
2023/04/13 02:38:44;;;;;;;;;;;5.90;99.90;;;;;;5093765;28;20322;-74
2023/04/13 02:41:10;;;;;;;;;;;5.90;99.90;;;;;;5075408;28;19927;-73
2023/04/13 02:43:36;;;;;;;;;;;5.90;99.90;;;;;;5093654;28;19915;-72
2023/04/13 02:46:01;;;;;;;;;;;5.90;99.90;;;;;;5093871;28;19908;-75
2023/04/13 02:48:27;;;;;;;;;;;5.90;99.90;;;;;;5075593;28;20014;-73
2023/04/13 02:50:52;;;;;;;;;;;5.90;99.90;;;;;;5093563;28;20007;-73
2023/04/13 02:53:18;;;;;;;;;;;5.80;99.90;;;;;;5093666;28;19908;-73
2023/04/13 02:55:44;;;;;;;;;;;5.80;99.90;;;;;;5075402;28;20080;-72
2023/04/13 02:58:10;;;;;;;;;;;5.80;99.90;;;;;;5075334;28;19908;-74
2023/04/13 03:00:37;;;;;;;;;;;5.70;99.90;;;;;;5093677;28;19999;-73
2023/04/13 03:03:03;;;;;;;;;;;5.60;99.90;;;;;;5093521;28;20257;-73
2023/04/13 03:05:32;;;;;;;;;;;5.60;99.90;;;;;;5075270;28;20003;-72
2023/04/13 03:07:58;;;;;;;;;;;5.60;99.90;;;;;;5093456;28;19909;-73
2023/04/13 03:10:23;;;;;;;;;;;5.60;99.90;;;;;;5093487;28;19916;-74
2023/04/13 03:12:49;;;;;;;;;;;5.60;99.90;;;;;;5094771;28;19952;-75
2023/04/13 03:15:17;;;;;;;;;;;5.60;99.90;;;;;;5097410;28;20011;-73
2023/04/13 03:17:43;;;;;;;;;;;5.60;99.90;;;;;;5097184;28;19999;-72
2023/04/13 03:20:15;;;;;;;;;;;5.50;99.90;;;;;;5097347;28;20318;-73
2023/04/13 03:22:41;;;;;;;;;;;5.50;99.90;;;;;;5078649;28;20009;-73
2023/04/13 03:25:07;;;;;;;;;;;5.50;99.90;;;;;;5097159;28;19971;-73
2023/04/13 03:27:33;;;;;;;;;;;5.50;99.90;;;;;;5097038;28;20332;-72
2023/04/13 03:29:58;;;;;;;;;;;5.40;99.90;;;;;;5097182;28;19966;-72
2023/04/13 03:32:24;;;;;;;;;;;5.40;99.90;;;;;;5096998;28;19912;-73
2023/04/13 03:34:50;;;;;;;;;;;5.40;99.90;;;;;;5097038;28;19943;-73
2023/04/13 03:37:15;;;;;;;;;;;5.40;99.90;;;;;;5096897;28;20390;-73
2023/04/13 03:39:41;;;;;;;;;;;5.40;99.90;;;;;;5096661;28;19908;-74
2023/04/13 03:42:07;;;;;;;;;;;5.30;99.90;;;;;;5097004;28;19960;-72
2023/04/13 03:44:32;;;;;;;;;;;5.40;99.90;;;;;;5078572;28;19914;-75
2023/04/13 03:46:58;;;;;;;;;;;5.40;99.90;;;;;;5096745;28;19908;-74
2023/04/13 03:49:23;;;;;;;;;;;5.50;99.90;;;;;;5096582;28;19942;-73
2023/04/13 03:51:49;;;;;;;;;;;5.50;99.90;;;;;;5078357;28;19915;-73
2023/04/13 03:54:15;;;;;;;;;;;5.50;99.90;;;;;;5096810;28;20284;-73
2023/04/13 03:56:41;;;;;;;;;;;5.50;99.90;;;;;;5078305;28;19908;-74
2023/04/13 03:59:06;;;;;;;;;;;5.50;99.90;;;;;;5096335;28;19908;-73
2023/04/13 04:01:32;;;;;;;;;;;5.50;99.90;;;;;;5096412;28;19914;-73
2023/04/13 04:03:57;;;;;;;;;;;5.40;99.90;;;;;;5096396;28;19999;-75
2023/04/13 04:06:23;;;;;;;;;;;5.30;99.90;;;;;;5096372;28;19908;-73
2023/04/13 04:08:49;;;;;;;;;;;5.20;99.90;;;;;;5096228;28;19942;-71
2023/04/13 04:11:15;;;;;;;;;;;5.20;99.90;;;;;;5096226;28;19919;-72
2023/04/13 04:13:41;;;;;;;;;;;5.20;99.90;;;;;;5096517;28;20307;-74
2023/04/13 04:16:07;;;;;;;;;;;5.20;99.90;;;;;;5096253;28;19916;-73
2023/04/13 04:18:33;;;;;;;;;;;5.20;99.90;;;;;;5096049;28;19938;-74
2023/04/13 04:21:01;;;;;;;;;;;5.20;99.90;;;;;;5096006;28;19908;-73
2023/04/13 04:23:27;;;;;;;;;;;5.20;99.90;;;;;;5095998;28;19908;-72
2023/04/13 04:25:53;;;;;;;;;;;5.20;99.90;;;;;;5095971;28;20444;-74
2023/04/13 04:28:18;;;;;;;;;;;5.20;99.90;;;;;;5095879;28;19915;-74
2023/04/13 04:30:53;;;;;;;;;;;5.20;99.90;;;;;;5095768;28;20010;-73
2023/04/13 04:33:21;;;;;;;;;;;5.20;99.90;;;;;;5096030;28;19908;-73
2023/04/13 04:35:50;;;;;;;;;;;5.20;99.90;;;;;;5095949;28;19908;-73
2023/04/13 04:38:16;;;;;;;;;;;5.20;99.90;;;;;;5095651;28;19947;-72
2023/04/13 04:40:45;;;;;;;;;;;5.10;99.90;;;;;;5095548;28;19927;-73
2023/04/13 04:43:14;;;;;;;;;;;5.10;99.90;;;;;;5095976;28;19912;-73
2023/04/13 04:45:42;;;;;;;;;;;5.10;99.90;;;;;;5095509;28;20037;-73
2023/04/13 04:48:08;;;;;;;;;;;5.10;99.90;;;;;;5095460;28;19950;-74
2023/04/13 04:50:36;;;;;;;;;;;5.10;99.90;;;;;;5095410;28;19912;-72
2023/04/13 04:53:04;;;;;;;;;;;5.10;99.90;;;;;;5095672;28;19995;-73
2023/04/13 04:55:29;;;;;;;;;;;5.20;99.90;;;;;;5095337;28;19908;-74
2023/04/13 04:57:55;;;;;;;;;;;5.20;99.90;;;;;;5095240;28;20337;-75
2023/04/13 05:00:21;;;;;;;;;;;5.20;99.90;;;;;;5077076;28;19912;-74
2023/04/13 05:02:49;;;;;;;;;;;5.20;99.90;;;;;;5095267;28;19951;-73
2023/04/13 05:05:15;;;;;;;;;;;5.10;99.90;;;;;;5095171;28;19911;-74
2023/04/13 05:07:40;;;;;;;;;;;5.10;99.90;;;;;;5095123;28;20003;-73
2023/04/13 05:10:06;;;;;;;;;;;5.20;99.90;;;;;;5076822;28;19935;-74
2023/04/13 05:12:32;;;;;;;;;;;5.20;99.90;;;;;;5076829;28;19912;-73
2023/04/13 05:14:58;;;;;;;;;;;5.20;99.90;;;;;;5095300;28;19915;-73
2023/04/13 05:17:24;;;;;;;;;;;5.20;99.90;;;;;;5094926;28;20011;-73
2023/04/13 05:19:50;;;;;;;;;;;5.20;99.90;;;;;;5094866;28;20403;-73
2023/04/13 05:22:16;;;;;;;;;;;5.00;99.90;;;;;;5094829;28;19958;-74
2023/04/13 05:24:42;;;;;;;;;;;5.00;99.90;;;;;;5094779;28;19908;-73
2023/04/13 05:27:08;;;;;;;;;;;5.00;99.90;;;;;;5076643;28;19908;-73
2023/04/13 05:29:34;;;;;;;;;;;5.00;99.90;;;;;;5094852;28;20419;-74
2023/04/13 05:32:00;;;;;;;;;;;5.00;99.90;;;;;;5094671;28;19985;-74
2023/04/13 05:34:26;;;;;;;;;;;4.90;99.90;;;;;;5094657;28;19908;-72
2023/04/13 05:36:52;;;;;;;;;;;4.90;99.90;;;;;;5094639;28;19915;-73
2023/04/13 05:39:18;;;;;;;;;;;4.90;99.90;;;;;;5094581;28;19908;-72
2023/04/13 05:41:44;;;;;;;;;;;4.90;99.90;;;;;;5094062;28;19920;-73
2023/04/13 05:44:09;;;;;;;;;;;4.90;99.90;;;;;;5094296;28;19908;-73
2023/04/13 05:46:35;;;;;;;;;;;4.90;99.90;;;;;;5094368;28;19970;-74
2023/04/13 05:49:01;;;;;;;;;;;4.90;99.90;;;;;;5094410;28;20328;-73
2023/04/13 05:51:31;;;;;;;;;;;4.90;99.90;;;;;;5094188;28;19908;-73
2023/04/13 05:53:57;;;;;;;;;;;5.00;99.90;;;;;;5075866;28;20280;-74
2023/04/13 05:56:24;;;;;;;;;;;5.10;99.90;;;;;;5075990;28;19909;-73
2023/04/13 05:58:51;;;;;;;;;;;5.20;99.90;;;;;;5094162;28;19909;-72
2023/04/13 06:01:18;;;;;;;;;;;5.20;99.90;;;;;;5094586;28;19912;-74
2023/04/13 06:03:45;;;;;;;;;;;5.30;99.90;;;;;;5094329;28;19915;-74
2023/04/13 06:06:11;;;;;;;;;;;5.40;99.90;;;;;;5075997;28;19908;-74
2023/04/13 06:08:37;;;;;;;;;;;5.40;99.90;;;;;;5094020;28;19961;-73
2023/04/13 06:11:05;;;;;;;;;;;5.50;99.90;;;;;;5093991;28;19915;-73
2023/04/13 06:13:30;;;;;;;;;;;5.60;99.90;;;;;;5075838;28;19908;-74
2023/04/13 06:15:57;;;;;;;;;;;5.60;99.90;;;;;;5093989;28;19908;-73
2023/04/13 06:18:25;;;;;;;;;;;5.80;99.90;;;;;;5094203;28;19954;-74
2023/04/13 06:20:51;;;;;;;;;;;6.30;99.90;;;;;;5075785;28;19915;-72
2023/04/13 06:23:17;;;;;;;;;;;6.70;99.90;;;;;;5093879;28;19908;-74
2023/04/13 06:25:43;;;;;;;;;;;7.00;99.90;;;;;;5094237;28;19908;-73
2023/04/13 06:28:09;;;;;;;;;;;7.40;99.90;;;;;;5094004;28;19908;-72
2023/04/13 06:30:36;;;;;;;;;;;8.00;99.90;;;;;;5093898;28;19916;-73
2023/04/13 06:33:01;;;;;;;;;;;8.10;99.90;;;;;;5093774;28;19915;-73
2023/04/13 06:35:29;;;;;;;;;;;8.60;99.90;;;;;;5093753;28;19908;-72
2023/04/13 06:37:56;;;;;;;;;;;8.80;99.90;;;;;;5075648;28;19967;-74
2023/04/13 06:40:22;;;;;;;;;;;9.20;99.90;;;;;;5093504;28;20005;-73
2023/04/13 06:42:47;;;;;;;;;;;9.50;99.90;;;;;;5093776;28;19966;-73
2023/04/13 06:45:13;;;;;;;;;;;9.60;99.90;;;;;;5093727;28;19915;-74
2023/04/13 06:47:41;;;;;;;;;;;9.70;99.90;;;;;;5094700;28;19908;-74
2023/04/13 06:50:07;;;;;;;;;;;9.50;99.90;;;;;;5097670;28;19916;-72
2023/04/13 06:52:33;;;;;;;;;;;9.30;99.90;;;;;;5097735;28;19916;-73
2023/04/13 06:54:59;;;;;;;;;;;9.20;99.90;;;;;;5097666;28;19908;-72
2023/04/13 06:57:25;;;;;;;;;;;9.30;99.90;;;;;;5097702;28;19918;-73
2023/04/13 06:59:50;;;;;;;;;;;9.50;99.90;;;;;;5097567;28;19962;-74
2023/04/13 07:02:16;;;;;;;;;;;9.70;99.90;;;;;;5097887;28;20342;-73
2023/04/13 07:04:42;;;;;;;;;;;9.80;99.90;;;;;;5079310;28;19908;-74
2023/04/13 07:07:07;;;;;;;;;;;10.30;99.90;;;;;;5097627;28;20018;-73
2023/04/13 07:09:33;;;;;;;;;;;10.70;99.90;;;;;;5097391;28;19961;-74
2023/04/13 07:12:06;;;;;;;;;;;11.20;99.90;;;;;;5097420;28;20402;-73
2023/04/13 07:14:32;;;;;;;;;;;11.70;99.90;;;;;;5097506;28;19908;-75
2023/04/13 07:16:58;;;;;;;;;;;11.90;99.90;;;;;;5097347;28;19908;-73
2023/04/13 07:19:24;;;;;;;;;;;12.10;99.90;;;;;;5097237;28;20261;-73
2023/04/13 07:21:50;;;;;;;;;;;12.60;99.90;;;;;;5079038;28;20386;-74
2023/04/13 07:24:16;;;;;;;;;;;13.30;99.90;;;;;;5097171;28;19943;-75
2023/04/13 07:26:41;;;;;;;;;;;13.80;99.90;;;;;;5097345;28;20303;-75
2023/04/13 07:29:12;;;;;;;;;;;14.40;99.90;;;;;;5096987;28;19984;-74
2023/04/13 07:31:38;;;;;;;;;;;14.80;99.90;;;;;;5097035;28;19908;-73
2023/04/13 07:34:04;;;;;;;;;;;15.20;99.90;;;;;;5097209;28;19930;-73
2023/04/13 07:36:30;;;;;;;;;;;15.80;97.10;;;;;;5096968;28;19912;-73
2023/04/13 07:38:56;;;;;;;;;;;16.00;94.80;;;;;;5096987;28;19908;-74
2023/04/13 07:41:23;;;;;;;;;;;16.20;94.10;;;;;;5074000;28;19924;-74
2023/04/13 07:43:50;;;;;;;;;;;16.80;88.10;;;;;;5075393;28;20261;-74
2023/04/13 07:46:16;;;;;;;;;;;17.10;83.10;;;;;;5075356;28;19912;-73
2023/04/13 07:48:42;;;;;;;;;;;17.60;80.60;;;;;;5075355;28;19908;-75
2023/04/13 07:51:20;;;;;;;;;;;17.80;75.90;;;;;;5075296;28;20333;-74
2023/04/13 07:53:46;;;;;;;;;;;17.80;72.10;;;;;;5075193;28;19908;-73
2023/04/13 07:56:11;;;;;;;;;;;18.00;70.70;;;;;;5075504;28;19915;-73
2023/04/13 07:58:37;;;;;;;;;;;18.20;72.70;;;;;;5074596;28;19915;-75
2023/04/13 08:01:03;;;;;;;;;;;17.80;73.10;;;;;;5075127;28;20038;-74
2023/04/13 08:03:33;;;;;;;;;;;17.50;76.20;;;;;;5075085;28;19909;-73
2023/04/13 08:05:59;;;;;;;;;;;15.70;88.60;;;;;;5074981;28;19909;-74
2023/04/13 08:08:25;;;;;;;;;;;15.00;94.70;;;;;;5074960;28;19935;-75
2023/04/13 08:10:51;;;;;;;;;;;15.20;93.10;;;;;;5073601;28;19912;-73
2023/04/13 08:13:17;;;;;;;;;;;16.50;89.90;;;;;;5074902;28;20364;-72
2023/04/13 08:15:43;;;;;;;;;;;18.00;73.60;;;;;;5074880;28;19909;-76
2023/04/13 08:18:08;;;;;;;;;;;18.60;70.50;;;;;;5075065;28;19999;-74
2023/04/13 08:20:36;;;;;;;;;;;18.50;67.90;;;;;;5075045;28;20425;-74
2023/04/13 08:23:02;;;;;;;;;;;18.60;65.80;;;;;;5074796;28;19908;-75
2023/04/13 08:25:31;;;;;;;;;;;19.70;62.90;;;;;;5073439;28;20283;-74
2023/04/13 08:27:57;;;;;;;;;;;20.00;56.20;;;;;;5074633;28;20372;-74
2023/04/13 08:30:22;;;;;;;;;;;20.10;56.20;;;;;;5074720;28;19912;-73
2023/04/13 08:32:49;;;;;;;;;;;21.00;54.70;;;;;;5074632;28;19916;-73
2023/04/13 08:35:15;;;;;;;;;;;21.80;51.90;;;;;;5074566;28;19985;-73
2023/04/13 08:37:41;;;;;;;;;;;22.40;49.50;;;;;;5074584;28;19952;-74
2023/04/13 08:40:12;;;;;;;;;;;22.80;46.70;;;;;;4966402;28;3193081;-74
2023/04/13 08:42:38;;;;;;;;;;;22.00;48.00;;;;;;5077245;28;19912;-73
2023/04/13 08:45:04;;;;;;;;;;;21.20;49.60;;;;;;5077473;28;19915;-73
2023/04/13 08:47:36;;;;;;;;;;;19.80;51.20;;;;;;5095806;28;19908;-73
2023/04/13 08:50:02;;;;;;;;;;;18.40;56.10;;;;;;5095413;28;19912;-74
2023/04/13 08:52:28;;;;;;;;;;;17.30;61.90;;;;;;5077337;28;19914;-73
2023/04/13 08:54:56;;;;;;;;;;;16.00;71.10;;;;;;5095454;28;19908;-73
2023/04/13 08:57:22;;;;;;;;;;;15.20;87.10;;;;;;5095650;28;20276;-73
2023/04/13 08:59:51;;;;;;;;;;;14.90;89.70;;;;;;5095303;28;19908;-74
2023/04/13 09:02:25;;;;;;;;;;;14.60;91.60;;;;;;5095266;28;19907;-73
2023/04/13 09:04:54;;;;;;;;;;;14.50;92.50;;;;;;5095291;28;19908;-74
2023/04/13 09:07:25;;;;;;;;;;;14.20;97.60;;;;;;5095155;28;19915;-74
2023/04/13 09:09:54;;;;;;;;;;;14.00;96.20;;;;;;5094751;28;19912;-74
2023/04/13 09:12:20;;;;;;;;;;;13.70;99.90;;;;;;5094994;28;19915;-74
2023/04/13 09:14:46;;;;;;;;;;;13.70;96.80;;;;;;5095039;28;19908;-73
2023/04/13 09:17:24;;;;;;;;;;;13.90;94.30;;;;;;5094946;28;19908;-74
2023/04/13 09:19:50;;;;;;;;;;;14.10;94.10;;;;;;5095100;28;19948;-75
2023/04/13 09:22:15;;;;;;;;;;;14.50;93.30;;;;;;5094884;28;19912;-74
2023/04/13 09:24:41;;;;;;;;;;;14.80;90.00;;;;;;5094808;28;19908;-74
2023/04/13 09:27:20;;;;;;;;;;;15.50;86.10;;;;;;5094808;28;19908;-73
2023/04/13 09:29:53;;;;;;;;;;;16.70;73.20;;;;;;5094845;28;19916;-74
2023/04/13 09:32:20;;;;;;;;;;;19.40;60.30;;;;;;5094927;28;19908;-73
2023/04/13 09:34:55;;;;;;;;;;;21.70;47.70;;;;;;5094717;28;19912;-72
2023/04/13 09:37:21;;;;;;;;;;;21.90;42.40;;;;;;5094857;28;19953;-73
2023/04/13 09:39:46;;;;;;;;;;;20.20;45.30;;;;;;5094347;28;19908;-72
2023/04/13 09:42:16;;;;;;;;;;;20.80;45.50;;;;;;5094656;28;20329;-72
2023/04/13 09:44:42;;;;;;;;;;;21.50;42.10;;;;;;5094467;28;19908;-71
2023/04/13 09:47:08;;;;;;;;;;;19.80;44.90;;;;;;5094460;28;19914;-71
2023/04/13 09:49:37;;;;;;;;;;;18.10;49.30;;;;;;5094633;28;20011;-73
2023/04/13 09:52:03;;;;;;;;;;;16.70;57.40;;;;;;5094319;28;20257;-75
2023/04/13 09:54:28;;;;;;;;;;;16.70;63.30;;;;;;5076148;28;19936;-75
2023/04/13 09:56:55;;;;;;;;;;;19.60;51.90;;;;;;5075968;28;19931;-75
2023/04/13 09:59:24;;;;;;;;;;;22.40;41.40;;;;;;5094633;28;19919;-74
2023/04/13 10:01:50;;;;;;;;;;;23.10;37.80;;;;;;5094329;28;19998;-75
2023/04/13 10:04:16;;;;;;;;;;;22.30;37.60;;;;;;5094155;28;19978;-72
2023/04/13 10:06:46;;;;;;;;;;;19.20;43.90;;;;;;5075896;28;19908;-73
2023/04/13 10:09:13;;;;;;;;;;;17.50;52.70;;;;;;5094016;28;19908;-75
2023/04/13 10:11:47;;;;;;;;;;;17.20;53.60;;;;;;5094119;28;19942;-75
2023/04/13 10:14:13;;;;;;;;;;;17.30;54.60;;;;;;5094191;28;19909;-74
2023/04/13 10:16:54;;;;;;;;;;;18.40;51.30;;;;;;5093999;28;19998;-73
2023/04/13 10:19:26;;;;;;;;;;;18.30;53.00;;;;;;5093898;28;19916;-75
2023/04/13 10:21:53;;;;;;;;;;;17.20;53.80;;;;;;5094000;28;20295;-74
2023/04/13 10:24:19;;;;;;;;;;;17.00;54.60;;;;;;5094089;28;19915;-73
2023/04/13 10:26:45;;;;;;;;;;;17.00;55.80;;;;;;5093865;28;19931;-74
2023/04/13 10:29:13;;;;;;;;;;;20.60;51.20;;;;;;5093690;28;19908;-75
2023/04/13 10:31:49;;;;;;;;;;;25.50;33.00;;;;;;5094330;28;19931;-72
2023/04/13 10:34:26;;;;;;;;;;;26.40;29.60;;;;;;5093757;28;19908;-72
2023/04/13 10:36:54;;;;;;;;;;;27.60;27.60;;;;;;5093781;28;19991;-72
2023/04/13 10:39:24;;;;;;;;;;;25.90;27.80;;;;;;5075594;28;19958;-72
2023/04/13 10:42:02;;;;;;;;;;;26.90;26.40;;;;;;5093276;28;19927;-72
2023/04/13 10:44:39;;;;;;;;;;;27.60;26.00;;;;;;5093737;28;19908;-72
2023/04/13 10:47:07;;;;;;;;;;;30.00;23.60;;;;;;5093859;28;19943;-72
2023/04/13 10:49:35;;;;;;;;;;;30.00;22.90;;;;;;5093569;28;20290;-71
2023/04/13 10:52:01;;;;;;;;;;;28.30;24.00;;;;;;5093607;28;19947;-73
2023/04/13 10:54:28;;;;;;;;;;;31.50;21.70;;;;;;5093566;28;19943;-71
2023/04/13 10:56:56;;;;;;;;;;;28.40;22.70;;;;;;5075345;28;19908;-72
2023/04/13 10:59:21;;;;;;;;;;;23.20;29.20;;;;;;5093565;28;19912;-71
2023/04/13 11:01:47;;;;;;;;;;;21.30;33.80;;;;;;5093743;28;19915;-72
2023/04/13 11:04:14;;;;;;;;;;;22.30;32.80;;;;;;5093431;28;19908;-73
2023/04/13 11:06:40;;;;;;;;;;;25.50;29.10;;;;;;5093492;28;19961;-72
2023/04/13 11:09:05;;;;;;;;;;;24.40;28.30;;;;;;5093516;28;19916;-71
2023/04/13 11:11:32;;;;;;;;;;;20.80;32.90;;;;;;5093549;28;19947;-71
2023/04/13 11:13:58;;;;;;;;;;;18.00;40.10;;;;;;5075318;28;19908;-74
2023/04/13 11:16:24;;;;;;;;;;;15.60;59.70;;;;;;5093343;28;19912;-73
2023/04/13 11:18:59;;;;;;;;;;;14.80;73.40;;;;;;5093631;28;19908;-74
2023/04/13 11:21:25;;;;;;;;;;;15.20;71.40;;;;;;5074906;28;20472;-74
2023/04/13 11:23:52;;;;;;;;;;;20.00;48.90;;;;;;5093374;28;19908;-71
2023/04/13 11:26:18;;;;;;;;;;;24.50;26.90;;;;;;5093241;28;19987;-72
2023/04/13 11:28:45;;;;;;;;;;;24.70;21.70;;;;;;5093296;28;20008;-72
2023/04/13 11:31:11;;;;;;;;;;;23.30;22.60;;;;;;5093270;28;19912;-71
2023/04/13 11:33:37;;;;;;;;;;;23.50;23.00;;;;;;5094256;28;20261;-72
2023/04/13 11:36:03;;;;;;;;;;;22.50;22.70;;;;;;5097205;28;19915;-70
2023/04/13 11:38:29;;;;;;;;;;;20.60;26.20;;;;;;5096860;28;19933;-71
2023/04/13 11:41:02;;;;;;;;;;;20.80;27.10;;;;;;5096640;28;19920;-72
2023/04/13 11:43:28;;;;;;;;;;;20.30;26.00;;;;;;5097009;28;19908;-72
2023/04/13 11:45:53;;;;;;;;;;;23.40;22.60;;;;;;5096777;28;19914;-72
2023/04/13 11:48:19;;;;;;;;;;;25.80;18.30;;;;;;5078499;28;19908;-72
2023/04/13 11:50:45;;;;;;;;;;;24.60;17.60;;;;;;5096768;28;19920;-72
2023/04/13 11:53:11;;;;;;;;;;;21.10;22.80;;;;;;5096775;28;20330;-74
2023/04/13 11:55:38;;;;;;;;;;;19.00;27.80;;;;;;5096571;28;19908;-74
2023/04/13 11:58:10;;;;;;;;;;;18.00;28.80;;;;;;5096513;28;20000;-73
2023/04/13 12:00:40;;;;;;;;;;;17.70;32.20;;;;;;5096885;28;19912;-74
2023/04/13 12:03:13;;;;;;;;;;;17.50;34.00;;;;;;5096467;28;19912;-73
2023/04/13 12:05:39;;;;;;;;;;;17.30;36.50;;;;;;5078263;28;19947;-73
2023/04/13 12:08:05;;;;;;;;;;;17.80;36.50;;;;;;5096319;28;19919;-73
2023/04/13 12:10:33;;;;;;;;;;;18.00;32.70;;;;;;5096177;28;19957;-74
2023/04/13 12:13:07;;;;;;;;;;;17.70;36.00;;;;;;5096368;28;20363;-75
2023/04/13 12:15:34;;;;;;;;;;;16.70;36.90;;;;;;5078075;28;19916;-74
2023/04/13 12:18:00;;;;;;;;;;;16.10;41.50;;;;;;5096403;28;19931;-73
2023/04/13 12:20:34;;;;;;;;;;;16.10;40.60;;;;;;5096568;28;19923;-75
2023/04/13 12:23:00;;;;;;;;;;;16.00;44.10;;;;;;5096194;28;19908;-73
2023/04/13 12:25:26;;;;;;;;;;;16.30;46.00;;;;;;5096059;28;19919;-74
2023/04/13 12:27:52;;;;;;;;;;;16.30;52.50;;;;;;5096251;28;20314;-73
2023/04/13 12:30:20;;;;;;;;;;;15.80;50.70;;;;;;5095896;28;19912;-74
2023/04/13 12:32:46;;;;;;;;;;;14.70;61.00;;;;;;5095964;28;19916;-72
2023/04/13 12:35:13;;;;;;;;;;;14.10;87.50;;;;;;5095961;28;20037;-75
2023/04/13 12:37:40;;;;;;;;;;;14.90;88.80;;;;;;5077592;28;20372;-73
2023/04/13 12:40:12;;;;;;;;;;;15.40;78.80;;;;;;5095563;28;19916;-73
2023/04/13 12:42:39;;;;;;;;;;;16.10;65.10;;;;;;5077276;28;19917;-74
2023/04/13 12:45:05;;;;;;;;;;;15.90;57.40;;;;;;5094472;28;19912;-74
2023/04/13 12:47:30;;;;;;;;;;;15.40;55.40;;;;;;5077370;28;20402;-75
2023/04/13 12:49:56;;;;;;;;;;;15.10;69.30;;;;;;5095453;28;19947;-75
2023/04/13 12:52:21;;;;;;;;;;;15.40;66.80;;;;;;5095873;28;19909;-74
2023/04/13 12:54:47;;;;;;;;;;;14.30;79.30;;;;;;5095497;28;19947;-75
2023/04/13 12:57:16;;;;;;;;;;;13.10;99.90;;;;;;5095348;28;19957;-74
2023/04/13 12:59:42;;;;;;;;;;;12.30;99.90;;;;;;5095424;28;19908;-74
2023/04/13 13:02:08;;;;;;;;;;;11.90;99.90;;;;;;5095295;28;19915;-74
2023/04/13 13:04:34;;;;;;;;;;;11.70;99.90;;;;;;5095607;28;19915;-73
2023/04/13 13:07:00;;;;;;;;;;;11.80;99.90;;;;;;5095277;28;19908;-75
2023/04/13 13:09:25;;;;;;;;;;;11.90;99.90;;;;;;5095154;28;20371;-73
2023/04/13 13:11:51;;;;;;;;;;;17.60;99.90;;;;;;5095221;28;19931;-74
2023/04/13 13:14:19;;;;;;;;;;;18.30;99.90;;;;;;5094971;28;19908;-73
2023/04/13 13:16:44;;;;;;;;;;;28.30;39.80;;;;;;5094967;28;19920;-73
2023/04/13 13:19:10;;;;;;;;;;;33.70;14.60;;;;;;5095175;28;19908;-74
2023/04/13 13:21:36;;;;;;;;;;;36.70;7.90;;;;;;5094861;28;20364;-73
2023/04/13 13:24:02;;;;;;;;;;;38.10;4.00;;;;;;5094809;28;19912;-73
2023/04/13 13:26:28;;;;;;;;;;;38.40;2.40;;;;;;5094550;28;19916;-75
2023/04/13 13:28:53;;;;;;;;;;;38.30;1.40;;;;;;5094771;28;19915;-74
2023/04/13 13:31:19;;;;;;;;;;;37.60;1.60;;;;;;5076441;28;19912;-73
2023/04/13 13:33:44;;;;;;;;;;;37.90;2.10;;;;;;5094784;28;19908;-73
2023/04/13 13:36:12;;;;;;;;;;;37.70;1.90;;;;;;5094635;28;19915;-74
2023/04/13 13:38:38;;;;;;;;;;;36.00;2.60;;;;;;5094625;28;20299;-72
2023/04/13 13:41:03;;;;;;;;;;;30.80;6.70;;;;;;5094567;28;19920;-72
2023/04/13 13:43:29;;;;;;;;;;;26.50;12.50;;;;;;5094570;28;19923;-72
2023/04/13 13:45:55;;;;;;;;;;;26.60;15.80;;;;;;5094568;28;20371;-73
2023/04/13 13:48:20;;;;;;;;;;;29.50;11.60;;;;;;5094503;28;19954;-73
2023/04/13 13:50:46;;;;;;;;;;;33.90;7.40;;;;;;5094377;28;20279;-73
2023/04/13 13:53:11;;;;;;;;;;;33.10;6.00;;;;;;5094426;28;19915;-74
2023/04/13 13:55:37;;;;;;;;;;;32.60;6.70;;;;;;5094367;28;19915;-74
2023/04/13 13:58:07;;;;;;;;;;;32.60;7.20;;;;;;5093887;28;19915;-74
2023/04/13 14:00:33;;;;;;;;;;;33.80;6.20;;;;;;5094215;28;19913;-73
2023/04/13 14:02:59;;;;;;;;;;;31.30;8.20;;;;;;5094624;28;19909;-72
2023/04/13 14:05:25;;;;;;;;;;;32.10;7.90;;;;;;5094196;28;19915;-72
2023/04/13 14:07:50;;;;;;;;;;;32.20;7.70;;;;;;5094225;28;19908;-74
2023/04/13 14:10:16;;;;;;;;;;;32.00;6.70;;;;;;5094143;28;19908;-71
2023/04/13 14:12:45;;;;;;;;;;;32.50;7.70;;;;;;5094089;28;19908;-73
2023/04/13 14:15:11;;;;;;;;;;;31.60;6.30;;;;;;5094018;28;20321;-72
2023/04/13 14:17:37;;;;;;;;;;;27.50;10.50;;;;;;5093988;28;19908;-74
2023/04/13 14:20:14;;;;;;;;;;;27.80;13.00;;;;;;5093897;28;19912;-72
2023/04/13 14:22:44;;;;;;;;;;;29.70;9.90;;;;;;5094145;28;20020;-71